KPNA

Ralph Wenz Field Airport

Pinedale, Wyoming, USA
METAR KPNA 190655Z AUTO 31003KT 10SM CLR M12/M12 A2992 RMK AO2
Observed Flight Rules
Jan-19 @ 06:55 UTC (26 minutes ago) Visual Flight Rules
Wind Visibility Clouds
310° at 3 knots 10 miles
  • Clear skies
Temperatures Readings
Current -12°C / 10°F
Dewpoint -12°C / 10°F
Humidity 100%
Altimeter 29.92" Hg
Pressure 1013 hPa
Elevation 2160
METAR KPNA 190655Z AUTO 31003KT 10SM CLR M12/M12 A2992 RMK AO2
Observed Flight Rules
Jan-19 @ 06:55 UTC
(26 minutes ago)
VFR
Wind Visibility
310° at 3 knots 10 miles
Clouds
  • Clear skies
Temperature Dewpoint
-12°C / 10°F -12°C / 10°F
Humidity Altimeter Pressure
100% 29.92" Hg 1013 hPa